Huvudsida
METAR-TAF:

METAR-TAF

Flygplatser :

Zeltweg, Österrike

latitud: 47-12N, longitud: 014-45E, höjd: 677 m

Aktuellt väderrapport

Denna rapport gjordes för 1 timme och 26 minuter sedan, klockan 19:50 UTC
Vind 4 kt från nord
Temperatur -9°C
Fuktighet 100%
Tryck 1007 hPa
Sikt: 0500 m
underkyld dimma

METAR: LOXZ 141950Z 36004KT 0500 FZFG VV002 M09/M09 Q1007

Tid: 22:16 (21:16 UTC)

Väderprognos

Denna rapport gjordes för 10 timmar och 1 minuter sedan, klockan 11:15 UTC
Prognos gäller från 14 kl. 12 UTC till 14 kl. 21 UTC
Vind 3 kt varierande vindriktning
Sikt 10 km eller mer
Få moln på en höjd av 5000 ft
Spridda moln på en höjd av 10000 ft

TAF: LOXZ 141115Z 1412/1421 VRB03KT 9999 FEW050 SCT100

Aktuella väderrapporter och prognoser från 4000 flygplatser (METAR- och TAF-rapporter).

De tillgängliga stationerna syns som gula och röda prickar på kartan.

För musen över prickarna för att se namnen på stationerna.

Klicka sedan för att få väderrapporter och prognoser.

För att ändra kartan: Klicka på de gröna knapparna med ett svart kors på för att zooma in; den gröna knappen med ett streck på för att zooma ut; eller på de gröna pilarna för angränsande kartor.


METAR-TAF: